createdAt,value
2022-09-03T00:01:38.136Z,16.66
2022-09-03T00:04:22.365Z,16.65
2022-09-03T00:07:01.247Z,16.62
2022-09-03T00:09:37.586Z,16.58
2022-09-03T00:12:19.744Z,16.55
2022-09-03T00:14:55.380Z,16.51
2022-09-03T00:17:35.934Z,16.52
2022-09-03T00:20:20.173Z,16.49
2022-09-03T00:22:50.917Z,16.43
2022-09-03T00:25:30.300Z,16.36
2022-09-03T00:27:58.705Z,16.37
2022-09-03T00:30:27.626Z,16.37
2022-09-03T00:33:05.692Z,16.34
2022-09-03T00:35:40.963Z,16.31
2022-09-03T00:38:11.510Z,16.29
2022-09-03T00:41:08.593Z,16.26
2022-09-03T00:44:30.737Z,16.23
2022-09-03T00:47:18.320Z,16.18
2022-09-03T00:50:04.531Z,16.11
2022-09-03T00:53:06.287Z,16.10
2022-09-03T00:55:41.961Z,16.07
2022-09-03T00:58:17.059Z,16.07
2022-09-03T01:00:45.560Z,16.05
2022-09-03T01:03:33.892Z,16.04
2022-09-03T01:06:02.085Z,16.00
2022-09-03T01:08:51.001Z,15.98
2022-09-03T01:11:37.281Z,15.94
2022-09-03T01:14:27.494Z,15.92
2022-09-03T01:17:06.660Z,15.92
2022-09-03T01:19:52.183Z,15.89
2022-09-03T01:23:00.121Z,15.85
2022-09-03T01:25:54.203Z,15.80
2022-09-03T01:28:37.141Z,15.74
2022-09-03T01:31:33.784Z,15.73
2022-09-03T01:34:16.292Z,15.73
2022-09-03T01:37:38.377Z,15.69
2022-09-03T01:40:33.736Z,15.65
2022-09-03T01:43:37.925Z,15.61
2022-09-03T01:46:18.957Z,15.64
2022-09-03T01:48:54.387Z,15.64
2022-09-03T01:51:24.044Z,15.63
2022-09-03T01:54:17.905Z,15.57
2022-09-03T01:57:19.171Z,15.53
2022-09-03T02:00:03.919Z,15.54
2022-09-03T02:02:31.764Z,15.58
2022-09-03T02:05:09.376Z,15.61
2022-09-03T02:07:46.770Z,15.63
2022-09-03T02:10:27.954Z,15.65
2022-09-03T02:13:18.445Z,15.67
2022-09-03T02:15:47.810Z,15.63
2022-09-03T02:18:33.979Z,15.61
2022-09-03T02:21:00.781Z,15.56
2022-09-03T02:23:28.993Z,15.55
2022-09-03T02:25:58.593Z,15.52
2022-09-03T02:28:26.946Z,15.49
2022-09-03T02:30:57.142Z,15.44
2022-09-03T02:33:23.818Z,15.41
2022-09-03T02:35:51.684Z,15.35
2022-09-03T02:38:27.345Z,15.30
2022-09-03T02:40:54.569Z,15.25
2022-09-03T02:43:31.158Z,15.22
2022-09-03T02:46:03.631Z,15.16
2022-09-03T02:48:30.178Z,15.13
2022-09-03T02:50:56.697Z,15.08
2022-09-03T02:53:23.169Z,15.08
2022-09-03T02:55:49.698Z,15.07
2022-09-03T02:58:16.260Z,15.03
2022-09-03T03:00:43.013Z,15.03
2022-09-03T03:03:09.490Z,15.02
2022-09-03T03:05:47.211Z,14.97
2022-09-03T03:08:21.161Z,14.95
2022-09-03T03:10:49.482Z,14.94
2022-09-03T03:13:16.473Z,14.92
2022-09-03T03:15:43.360Z,14.89
2022-09-03T03:18:14.090Z,14.88
2022-09-03T03:20:41.757Z,14.87
2022-09-03T03:23:08.879Z,14.84
2022-09-03T03:25:38.423Z,14.81
2022-09-03T03:28:05.742Z,14.78
2022-09-03T03:30:33.164Z,14.76
2022-09-03T03:33:00.014Z,14.74
2022-09-03T03:35:26.549Z,14.70
2022-09-03T03:37:53.120Z,14.70
2022-09-03T03:40:20.337Z,14.66
2022-09-03T03:42:46.873Z,14.67
2022-09-03T03:45:13.348Z,14.65
2022-09-03T03:47:39.801Z,14.61
2022-09-03T03:50:06.600Z,14.62
2022-09-03T03:52:33.054Z,14.62
2022-09-03T03:54:59.474Z,14.62
2022-09-03T03:57:25.980Z,14.64
2022-09-03T03:59:52.457Z,14.62
2022-09-03T04:02:19.035Z,14.62
2022-09-03T04:04:45.700Z,14.64
2022-09-03T04:07:12.190Z,14.67
2022-09-03T04:09:39.026Z,14.69
2022-09-03T04:12:08.578Z,14.69
2022-09-03T04:14:35.465Z,14.68
2022-09-03T04:17:03.137Z,14.66
2022-09-03T04:19:30.229Z,14.64
2022-09-03T04:21:57.117Z,14.62
2022-09-03T04:24:24.019Z,14.64
2022-09-03T04:26:50.547Z,14.61
2022-09-03T04:29:18.335Z,14.60
2022-09-03T04:32:04.879Z,14.59
2022-09-03T04:34:31.733Z,14.55
2022-09-03T04:36:59.106Z,14.55
2022-09-03T04:39:26.251Z,14.58
2022-09-03T04:41:52.833Z,14.61
2022-09-03T04:44:19.297Z,14.58
2022-09-03T04:46:47.866Z,14.56
2022-09-03T04:49:14.793Z,14.54
2022-09-03T04:51:41.505Z,14.53
2022-09-03T04:54:09.895Z,14.56
2022-09-03T04:56:36.869Z,14.55
2022-09-03T04:59:09.209Z,14.60
2022-09-03T05:01:38.084Z,14.60
2022-09-03T05:04:05.950Z,14.64
2022-09-03T05:06:33.600Z,14.66
2022-09-03T05:09:08.863Z,14.70
2022-09-03T05:11:35.480Z,14.67
2022-09-03T05:14:02.396Z,14.71
2022-09-03T05:16:31.045Z,14.76
2022-09-03T05:18:59.784Z,14.79
2022-09-03T05:21:27.085Z,14.80
2022-09-03T05:23:54.279Z,14.82
2022-09-03T05:26:23.717Z,14.85
2022-09-03T05:28:55.083Z,14.83
2022-09-03T05:31:23.042Z,14.80
2022-09-03T05:33:55.262Z,14.80
2022-09-03T05:36:23.663Z,14.80
2022-09-03T05:38:50.589Z,14.82
2022-09-03T05:41:18.895Z,14.81
2022-09-03T05:43:47.737Z,14.82
2022-09-03T05:46:18.648Z,14.86
2022-09-03T05:48:45.298Z,14.88
2022-09-03T05:51:17.648Z,14.87
2022-09-03T05:53:46.811Z,14.87
2022-09-03T05:56:24.499Z,14.88
2022-09-03T05:58:56.659Z,14.88
2022-09-03T06:01:29.447Z,14.88
2022-09-03T06:03:58.504Z,14.91
2022-09-03T06:06:27.142Z,14.96
2022-09-03T06:08:55.406Z,15.02
2022-09-03T06:11:26.917Z,15.04
2022-09-03T06:13:54.859Z,15.08
2022-09-03T06:16:28.993Z,15.13
2022-09-03T06:18:59.872Z,15.16
2022-09-03T06:21:26.785Z,15.17
2022-09-03T06:23:56.866Z,15.15
2022-09-03T06:26:28.192Z,15.17
2022-09-03T06:28:56.364Z,15.21
2022-09-03T06:31:23.398Z,15.29
2022-09-03T06:33:50.345Z,15.33
2022-09-03T06:36:18.711Z,15.34
2022-09-03T06:38:46.230Z,15.39
2022-09-03T06:41:26.447Z,15.42
2022-09-03T06:44:04.717Z,15.46
2022-09-03T06:46:33.313Z,15.55
2022-09-03T06:49:00.429Z,15.61
2022-09-03T06:51:29.287Z,15.66
2022-09-03T06:54:04.443Z,15.74
2022-09-03T06:56:37.387Z,15.80
2022-09-03T06:59:14.302Z,15.89
2022-09-03T07:01:45.524Z,16.01
2022-09-03T07:04:16.279Z,16.15
2022-09-03T07:06:44.484Z,16.30
2022-09-03T07:09:12.407Z,16.45
2022-09-03T07:11:46.650Z,16.56
2022-09-03T07:14:14.465Z,16.72
2022-09-03T07:16:43.043Z,16.84
2022-09-03T07:19:10.254Z,16.96
2022-09-03T07:21:37.111Z,17.09
2022-09-03T07:24:05.738Z,17.21
2022-09-03T07:26:38.528Z,17.33
2022-09-03T07:29:07.801Z,17.43
2022-09-03T07:31:37.108Z,17.54
2022-09-03T07:34:12.665Z,17.67
2022-09-03T07:36:43.009Z,17.78
2022-09-03T07:39:12.260Z,17.91
2022-09-03T07:41:39.502Z,18.01
2022-09-03T07:44:08.556Z,18.11
2022-09-03T07:46:37.924Z,18.25
2022-09-03T07:49:06.212Z,18.30
2022-09-03T07:51:37.453Z,18.35
2022-09-03T07:54:09.160Z,18.43
2022-09-03T07:56:36.370Z,18.48
2022-09-03T07:59:03.815Z,18.53
2022-09-03T08:01:32.844Z,18.57
2022-09-03T08:04:00.868Z,18.63
2022-09-03T08:06:29.819Z,18.73
2022-09-03T08:09:05.306Z,18.72
2022-09-03T08:11:36.054Z,18.77
2022-09-03T08:14:06.215Z,18.87
2022-09-03T08:16:35.550Z,18.89
2022-09-03T08:19:02.103Z,19.02
2022-09-03T08:21:28.936Z,19.15
2022-09-03T08:24:02.631Z,19.28
2022-09-03T08:26:37.785Z,19.38
2022-09-03T08:29:05.304Z,19.45
2022-09-03T08:31:32.899Z,19.49
2022-09-03T08:34:06.935Z,19.48
2022-09-03T08:36:38.899Z,19.57
2022-09-03T08:39:10.799Z,19.68
2022-09-03T08:42:02.066Z,19.78
2022-09-03T08:44:47.060Z,19.85
2022-09-03T08:47:34.774Z,19.93
2022-09-03T08:50:10.184Z,20.14
2022-09-03T08:52:54.895Z,20.17
2022-09-03T08:55:44.897Z,20.13
2022-09-03T08:58:20.420Z,20.35
2022-09-03T09:01:01.535Z,20.47
2022-09-03T09:03:37.973Z,20.50
2022-09-03T09:06:13.300Z,20.53
2022-09-03T09:09:01.717Z,20.60
2022-09-03T09:11:45.500Z,20.62
2022-09-03T09:14:42.186Z,20.68
2022-09-03T09:17:09.096Z,20.63
2022-09-03T09:19:50.907Z,20.70
2022-09-03T09:22:47.381Z,20.79
2022-09-03T09:25:19.392Z,20.93
2022-09-03T09:27:58.847Z,21.06
2022-09-03T09:30:27.944Z,21.21
2022-09-03T09:32:55.330Z,21.23
2022-09-03T09:35:22.400Z,21.43
2022-09-03T09:37:50.994Z,21.49
2022-09-03T09:40:28.137Z,21.61
2022-09-03T09:43:24.593Z,21.75
2022-09-03T09:45:54.723Z,21.98
2022-09-03T09:48:34.018Z,22.07
2022-09-03T09:51:10.132Z,22.13
2022-09-03T09:53:37.188Z,22.28
2022-09-03T09:56:03.837Z,22.46
2022-09-03T09:58:33.036Z,22.63
2022-09-03T10:01:18.564Z,22.75
2022-09-03T10:03:55.523Z,22.80
2022-09-03T10:06:49.293Z,22.85
2022-09-03T10:09:18.181Z,23.01
2022-09-03T10:11:52.932Z,23.13
2022-09-03T10:14:35.113Z,23.19
2022-09-03T10:17:11.228Z,23.25
2022-09-03T10:20:10.267Z,23.31
2022-09-03T10:22:48.351Z,23.47
2022-09-03T10:25:30.518Z,23.58
2022-09-03T10:28:01.556Z,23.71
2022-09-03T10:30:29.928Z,23.80
2022-09-03T10:33:15.485Z,23.89
2022-09-03T10:35:51.772Z,24.08
2022-09-03T10:38:40.323Z,24.32
2022-09-03T10:41:23.559Z,24.45
2022-09-03T10:44:35.220Z,24.56
2022-09-03T10:47:07.577Z,24.61
2022-09-03T10:50:03.244Z,24.71
2022-09-03T10:52:30.256Z,24.81
2022-09-03T10:55:27.675Z,24.94
2022-09-03T10:58:25.137Z,25.14
2022-09-03T11:01:03.664Z,25.18
2022-09-03T11:03:30.246Z,25.23
2022-09-03T11:06:11.310Z,25.23
2022-09-03T11:08:43.106Z,25.38
2022-09-03T11:11:16.903Z,25.45
2022-09-03T11:14:00.185Z,25.58
2022-09-03T11:16:32.368Z,25.64
2022-09-03T11:19:08.241Z,25.69
2022-09-03T11:21:38.631Z,25.78
2022-09-03T11:24:22.471Z,25.74
2022-09-03T11:26:57.605Z,25.77
2022-09-03T11:29:47.604Z,25.95
2022-09-03T11:32:43.419Z,26.13
2022-09-03T11:35:25.463Z,26.09
2022-09-03T11:37:58.106Z,26.09
2022-09-03T11:40:35.078Z,26.17
2022-09-03T11:43:25.179Z,26.21
2022-09-03T11:46:23.296Z,26.23
2022-09-03T11:49:13.728Z,26.38
2022-09-03T11:51:44.005Z,26.43
2022-09-03T11:54:13.609Z,26.55
2022-09-03T11:56:42.385Z,26.55
2022-09-03T11:59:14.858Z,26.63
2022-09-03T12:02:05.637Z,26.65
2022-09-03T12:04:44.160Z,26.73
2022-09-03T12:07:32.691Z,26.79
2022-09-03T12:10:25.448Z,26.83
2022-09-03T12:13:01.222Z,26.87
2022-09-03T12:16:00.468Z,26.87
2022-09-03T12:18:32.099Z,26.91
2022-09-03T12:21:00.188Z,26.81
2022-09-03T12:23:28.411Z,26.93
2022-09-03T12:25:55.260Z,27.01
2022-09-03T12:28:31.010Z,27.09
2022-09-03T12:31:21.422Z,27.03
2022-09-03T12:33:59.072Z,26.89
2022-09-03T12:36:27.396Z,26.86
2022-09-03T12:39:11.611Z,27.02
2022-09-03T12:41:39.468Z,27.14
2022-09-03T12:44:06.180Z,27.29
2022-09-03T12:46:34.599Z,27.39
2022-09-03T12:52:06.117Z,27.32
2022-09-03T12:54:39.711Z,27.35
2022-09-03T12:57:06.644Z,27.38
2022-09-03T12:59:36.869Z,27.30
2022-09-03T13:02:21.259Z,27.32
2022-09-03T13:04:48.229Z,27.41
2022-09-03T13:07:22.716Z,27.55
2022-09-03T13:09:50.014Z,27.55
2022-09-03T13:12:33.539Z,27.57
2022-09-03T13:15:11.429Z,27.66
2022-09-03T13:17:51.903Z,27.62
2022-09-03T13:21:29.162Z,27.76
2022-09-03T13:24:34.045Z,27.69
2022-09-03T13:27:08.446Z,27.74
2022-09-03T13:30:06.971Z,27.83
2022-09-03T13:32:44.535Z,27.83
2022-09-03T13:35:37.021Z,27.88
2022-09-03T13:38:09.040Z,28.02
2022-09-03T13:40:43.325Z,28.14
2022-09-03T13:43:42.525Z,28.16
2022-09-03T13:46:26.588Z,28.22
2022-09-03T13:49:18.284Z,28.21
2022-09-03T13:51:55.787Z,28.11
2022-09-03T13:57:36.436Z,28.27
2022-09-03T14:00:10.242Z,28.35
2022-09-03T14:02:57.110Z,28.37
2022-09-03T14:05:26.451Z,28.44
2022-09-03T14:08:33.052Z,28.56
2022-09-03T14:11:32.498Z,28.63
2022-09-03T14:14:31.243Z,28.50
2022-09-03T14:16:57.782Z,28.46
2022-09-03T14:19:38.050Z,28.32
2022-09-03T14:22:33.491Z,28.33
2022-09-03T14:25:05.489Z,28.35
2022-09-03T14:27:33.074Z,28.29
2022-09-03T14:30:49.183Z,28.35
2022-09-03T14:33:56.533Z,28.42
2022-09-03T14:36:38.757Z,28.39
2022-09-03T14:39:13.486Z,28.34
2022-09-03T14:42:01.372Z,28.39
2022-09-03T14:44:40.656Z,28.56
2022-09-03T14:47:24.038Z,28.59
2022-09-03T14:50:33.867Z,28.69
2022-09-03T14:53:03.601Z,28.73
2022-09-03T14:55:33.235Z,28.58
2022-09-03T14:58:08.893Z,28.41
2022-09-03T15:00:58.234Z,28.46
2022-09-03T15:03:49.051Z,28.43
2022-09-03T15:06:32.374Z,28.40
2022-09-03T15:09:07.919Z,28.38
2022-09-03T15:11:48.607Z,28.40
2022-09-03T15:14:23.085Z,28.25
2022-09-03T15:17:15.065Z,28.05
2022-09-03T15:19:55.948Z,28.02
2022-09-03T15:22:41.830Z,27.87
2022-09-03T15:25:23.108Z,27.92
2022-09-03T15:28:17.740Z,27.88
2022-09-03T15:30:53.174Z,27.91
2022-09-03T15:33:47.045Z,27.99
2022-09-03T15:36:25.813Z,27.96
2022-09-03T15:39:01.899Z,27.94
2022-09-03T15:41:45.378Z,27.93
2022-09-03T15:44:19.646Z,27.83
2022-09-03T15:46:53.037Z,27.81
2022-09-03T15:49:21.096Z,27.84
2022-09-03T15:52:09.705Z,27.86
2022-09-03T15:54:43.969Z,27.75
2022-09-03T15:57:17.641Z,27.77
2022-09-03T15:59:54.576Z,27.68
2022-09-03T16:02:46.557Z,27.65
2022-09-03T16:05:46.970Z,27.55
2022-09-03T16:08:33.748Z,27.51
2022-09-03T16:11:28.528Z,27.50
2022-09-03T16:14:16.060Z,27.52
2022-09-03T16:17:03.446Z,27.53
2022-09-03T16:19:48.696Z,27.51
2022-09-03T16:22:50.638Z,27.50
2022-09-03T16:25:23.212Z,27.47
2022-09-03T16:27:59.792Z,27.42
2022-09-03T16:30:38.786Z,27.37
2022-09-03T16:33:26.106Z,27.36
2022-09-03T16:36:04.581Z,27.29
2022-09-03T16:38:49.234Z,27.26
2022-09-03T16:41:27.903Z,27.17
2022-09-03T16:44:01.568Z,27.12
2022-09-03T16:46:37.070Z,27.09
2022-09-03T16:49:33.754Z,27.03
2022-09-03T16:52:33.549Z,26.97
2022-09-03T16:55:22.123Z,26.92
2022-09-03T16:57:54.514Z,26.84
2022-09-03T17:00:22.422Z,26.72
2022-09-03T17:03:48.238Z,26.62
2022-09-03T17:06:17.950Z,26.52
2022-09-03T17:09:15.173Z,26.44
2022-09-03T17:11:48.017Z,26.38
2022-09-03T17:14:45.609Z,26.26
2022-09-03T17:17:12.043Z,26.22
2022-09-03T17:19:51.999Z,26.16
2022-09-03T17:22:39.750Z,26.12
2022-09-03T17:25:34.866Z,26.08
2022-09-03T17:28:49.100Z,26.01
2022-09-03T17:31:51.671Z,25.95
2022-09-03T17:34:51.443Z,25.87
2022-09-03T17:37:56.651Z,25.78
2022-09-03T17:40:27.913Z,25.76
2022-09-03T17:43:18.469Z,25.71
2022-09-03T17:46:40.062Z,25.62
2022-09-03T17:49:08.542Z,25.57
2022-09-03T17:51:46.335Z,25.48
2022-09-03T17:54:35.251Z,25.37
2022-09-03T17:57:20.382Z,25.21
2022-09-03T18:00:01.747Z,25.13
2022-09-03T18:02:35.470Z,25.02
2022-09-03T18:05:18.088Z,24.98
2022-09-03T18:08:23.531Z,24.89
2022-09-03T18:11:02.191Z,24.81
2022-09-03T18:13:56.057Z,24.70
2022-09-03T18:16:32.515Z,24.58
2022-09-03T18:19:19.153Z,24.47
2022-09-03T18:22:07.858Z,24.34
2022-09-03T18:25:10.836Z,24.21
2022-09-03T18:28:01.870Z,24.12
2022-09-03T18:30:47.010Z,23.98
2022-09-03T18:33:32.757Z,23.95
2022-09-03T18:36:18.279Z,23.88
2022-09-03T18:39:03.414Z,23.71
2022-09-03T18:42:14.754Z,23.58
2022-09-03T18:45:21.669Z,23.49
2022-09-03T18:48:31.042Z,23.41
2022-09-03T18:51:36.283Z,23.24
2022-09-03T18:55:08.243Z,23.12
2022-09-03T18:58:33.372Z,23.01
2022-09-03T19:01:29.971Z,22.99
2022-09-03T19:04:55.234Z,23.00
2022-09-03T19:07:46.291Z,22.88
2022-09-03T19:10:41.213Z,22.76
2022-09-03T19:14:04.512Z,22.63
2022-09-03T19:17:05.543Z,22.50
2022-09-03T19:20:07.310Z,22.47
2022-09-03T19:22:55.077Z,22.46
2022-09-03T19:25:41.544Z,22.43
2022-09-03T19:28:50.177Z,22.36
2022-09-03T19:32:10.887Z,22.30
2022-09-03T19:35:26.321Z,22.18
2022-09-03T19:38:23.590Z,22.10
2022-09-03T19:41:30.741Z,22.05
2022-09-03T19:44:35.471Z,21.98
2022-09-03T19:47:22.587Z,21.89
2022-09-03T19:50:44.579Z,21.78
2022-09-03T19:53:37.342Z,21.70
2022-09-03T19:56:29.479Z,21.65
2022-09-03T19:59:19.408Z,21.63
2022-09-03T20:02:05.645Z,21.62
2022-09-03T20:04:54.657Z,21.57
2022-09-03T20:07:40.216Z,21.53
2022-09-03T20:10:25.159Z,21.51
2022-09-03T20:13:15.109Z,21.46
2022-09-03T20:15:59.167Z,21.41
2022-09-03T20:18:48.223Z,21.35
2022-09-03T20:21:30.564Z,21.29
2022-09-03T20:24:12.809Z,21.19
2022-09-03T20:27:00.531Z,21.03
2022-09-03T20:29:51.702Z,20.95
2022-09-03T20:32:55.784Z,20.85
2022-09-03T20:36:05.782Z,20.75
2022-09-03T20:38:44.392Z,20.63
2022-09-03T20:41:37.427Z,20.56
2022-09-03T20:44:28.323Z,20.44
2022-09-03T20:47:22.618Z,20.36
2022-09-03T20:50:14.969Z,20.34
2022-09-03T20:52:54.602Z,20.29
2022-09-03T20:55:28.163Z,20.31
2022-09-03T20:57:57.549Z,20.13
2022-09-03T21:00:24.577Z,19.99
2022-09-03T21:03:15.931Z,19.96
2022-09-03T21:05:58.213Z,19.94
2022-09-03T21:08:52.936Z,19.85
2022-09-03T21:11:32.330Z,19.79
2022-09-03T21:14:06.634Z,19.75
2022-09-03T21:16:36.010Z,19.76
2022-09-03T21:19:17.355Z,19.70
2022-09-03T21:22:14.604Z,19.63
2022-09-03T21:24:52.965Z,19.72
2022-09-03T21:27:29.836Z,19.72
2022-09-03T21:30:02.532Z,19.73
2022-09-03T21:32:45.776Z,19.75
2022-09-03T21:35:27.314Z,19.73
2022-09-03T21:38:13.177Z,19.69
2022-09-03T21:41:04.971Z,19.66
2022-09-03T21:43:49.005Z,19.62
2022-09-03T21:46:35.901Z,19.59
2022-09-03T21:49:12.117Z,19.53
2022-09-03T21:51:52.015Z,19.50
2022-09-03T21:54:37.186Z,19.46
2022-09-03T21:57:17.624Z,19.45
2022-09-03T21:59:51.635Z,19.35
2022-09-03T22:02:30.089Z,19.27
2022-09-03T22:04:57.254Z,19.26
2022-09-03T22:07:41.828Z,19.17
2022-09-03T22:10:16.684Z,18.96
2022-09-03T22:13:09.354Z,18.86
2022-09-03T22:15:38.006Z,18.77
2022-09-03T22:18:17.385Z,18.71
2022-09-03T22:20:53.481Z,18.54
2022-09-03T22:23:28.919Z,18.40
2022-09-03T22:26:01.296Z,18.40
2022-09-03T22:28:37.827Z,18.45
2022-09-03T22:31:18.725Z,18.45
2022-09-03T22:34:03.926Z,18.47
2022-09-03T22:36:47.178Z,18.44
2022-09-03T22:39:13.591Z,18.47
2022-09-03T22:42:17.367Z,18.48
2022-09-03T22:44:51.017Z,18.44
2022-09-03T22:47:58.113Z,18.37
2022-09-03T22:50:36.752Z,18.39
2022-09-03T22:53:22.003Z,18.33
2022-09-03T22:56:11.031Z,18.32
2022-09-03T22:58:41.339Z,18.33
2022-09-03T23:01:18.596Z,18.32
2022-09-03T23:03:57.114Z,18.30
2022-09-03T23:06:33.709Z,18.21
2022-09-03T23:09:23.190Z,18.21
2022-09-03T23:11:55.603Z,18.20
2022-09-03T23:14:29.497Z,18.12
2022-09-03T23:17:00.924Z,18.13
2022-09-03T23:19:57.129Z,18.13
2022-09-03T23:22:31.065Z,18.13
2022-09-03T23:25:03.897Z,18.09
2022-09-03T23:27:46.469Z,18.07
2022-09-03T23:30:13.064Z,18.04
2022-09-03T23:32:39.602Z,18.00
2022-09-03T23:35:19.501Z,17.98
2022-09-03T23:38:04.138Z,18.01
2022-09-03T23:40:45.618Z,17.97
2022-09-03T23:43:28.377Z,17.92
2022-09-03T23:46:07.934Z,17.79
2022-09-03T23:49:08.858Z,17.77
2022-09-03T23:51:38.233Z,17.65
2022-09-03T23:54:19.906Z,17.59
2022-09-03T23:57:04.910Z,17.50
2022-09-03T23:59:34.383Z,17.32
